sensor_id;sensor_type;location;lat;lon;timestamp;temperature;humidity
26081;DHT22;13991;51.174;4.438;2023-08-12T00:00:38;22.90;99.90
26081;DHT22;13991;51.174;4.438;2023-08-12T00:03:04;22.90;99.90
26081;DHT22;13991;51.174;4.438;2023-08-12T00:05:31;22.80;99.90
26081;DHT22;13991;51.174;4.438;2023-08-12T00:07:57;22.90;99.90
26081;DHT22;13991;51.174;4.438;2023-08-12T00:10:23;22.80;99.90
26081;DHT22;13991;51.174;4.438;2023-08-12T00:12:49;22.80;99.90
26081;DHT22;13991;51.174;4.438;2023-08-12T00:15:16;22.80;99.90
26081;DHT22;13991;51.174;4.438;2023-08-12T00:17:43;22.80;99.90
26081;DHT22;13991;51.174;4.438;2023-08-12T00:20:10;22.70;99.90
26081;DHT22;13991;51.174;4.438;2023-08-12T00:22:38;22.80;99.90
26081;DHT22;13991;51.174;4.438;2023-08-12T00:25:04;22.80;99.90
26081;DHT22;13991;51.174;4.438;2023-08-12T00:27:30;22.90;99.90
26081;DHT22;13991;51.174;4.438;2023-08-12T00:29:56;22.70;99.90
26081;DHT22;13991;51.174;4.438;2023-08-12T00:32:23;22.70;99.90
26081;DHT22;13991;51.174;4.438;2023-08-12T00:34:49;22.70;99.90
26081;DHT22;13991;51.174;4.438;2023-08-12T00:37:16;22.70;99.90
26081;DHT22;13991;51.174;4.438;2023-08-12T00:39:41;22.70;99.90
26081;DHT22;13991;51.174;4.438;2023-08-12T00:42:07;22.70;99.90
26081;DHT22;13991;51.174;4.438;2023-08-12T00:44:34;22.70;99.90
26081;DHT22;13991;51.174;4.438;2023-08-12T00:47:00;22.70;99.90
26081;DHT22;13991;51.174;4.438;2023-08-12T00:49:26;22.70;99.90
26081;DHT22;13991;51.174;4.438;2023-08-12T00:51:53;22.70;99.90
26081;DHT22;13991;51.174;4.438;2023-08-12T00:54:20;22.70;99.90
26081;DHT22;13991;51.174;4.438;2023-08-12T00:56:48;22.70;99.90
26081;DHT22;13991;51.174;4.438;2023-08-12T00:59:16;22.70;99.90
26081;DHT22;13991;51.174;4.438;2023-08-12T01:01:43;22.70;99.90
26081;DHT22;13991;51.174;4.438;2023-08-12T01:04:11;22.70;99.90
26081;DHT22;13991;51.174;4.438;2023-08-12T01:06:38;22.70;99.90
26081;DHT22;13991;51.174;4.438;2023-08-12T01:09:07;22.70;99.90
26081;DHT22;13991;51.174;4.438;2023-08-12T01:11:46;22.60;99.90
26081;DHT22;13991;51.174;4.438;2023-08-12T01:14:18;22.60;99.90
26081;DHT22;13991;51.174;4.438;2023-08-12T01:16:51;22.60;99.90
26081;DHT22;13991;51.174;4.438;2023-08-12T01:19:30;22.60;99.90
26081;DHT22;13991;51.174;4.438;2023-08-12T01:22:00;22.70;99.90
26081;DHT22;13991;51.174;4.438;2023-08-12T01:24:27;22.60;99.90
26081;DHT22;13991;51.174;4.438;2023-08-12T01:26:59;22.60;99.90
26081;DHT22;13991;51.174;4.438;2023-08-12T01:29:25;22.70;99.90
26081;DHT22;13991;51.174;4.438;2023-08-12T01:37:28;22.60;99.90
26081;DHT22;13991;51.174;4.438;2023-08-12T01:39:56;22.50;99.90
26081;DHT22;13991;51.174;4.438;2023-08-12T01:42:25;22.30;99.90
26081;DHT22;13991;51.174;4.438;2023-08-12T01:44:51;22.30;99.90
26081;DHT22;13991;51.174;4.438;2023-08-12T01:47:17;22.40;99.90
26081;DHT22;13991;51.174;4.438;2023-08-12T01:49:43;22.40;99.90
26081;DHT22;13991;51.174;4.438;2023-08-12T01:52:08;22.50;99.90
26081;DHT22;13991;51.174;4.438;2023-08-12T01:54:34;22.50;99.90
26081;DHT22;13991;51.174;4.438;2023-08-12T01:57:02;22.50;99.90
26081;DHT22;13991;51.174;4.438;2023-08-12T01:59:28;22.40;99.90
26081;DHT22;13991;51.174;4.438;2023-08-12T02:01:53;22.40;99.90
26081;DHT22;13991;51.174;4.438;2023-08-12T02:04:19;22.40;99.90
26081;DHT22;13991;51.174;4.438;2023-08-12T02:06:45;22.40;99.90
26081;DHT22;13991;51.174;4.438;2023-08-12T02:09:11;22.40;99.90
26081;DHT22;13991;51.174;4.438;2023-08-12T02:11:36;22.40;99.90
26081;DHT22;13991;51.174;4.438;2023-08-12T02:14:02;22.40;99.90
26081;DHT22;13991;51.174;4.438;2023-08-12T02:16:28;22.20;99.90
26081;DHT22;13991;51.174;4.438;2023-08-12T02:18:54;22.30;99.90
26081;DHT22;13991;51.174;4.438;2023-08-12T02:21:20;22.30;99.90
26081;DHT22;13991;51.174;4.438;2023-08-12T02:23:45;22.30;99.90
26081;DHT22;13991;51.174;4.438;2023-08-12T02:26:11;22.30;99.90
26081;DHT22;13991;51.174;4.438;2023-08-12T02:28:36;22.30;99.90
26081;DHT22;13991;51.174;4.438;2023-08-12T02:31:03;22.30;99.90
26081;DHT22;13991;51.174;4.438;2023-08-12T02:33:29;22.30;99.90
26081;DHT22;13991;51.174;4.438;2023-08-12T02:35:55;22.30;99.90
26081;DHT22;13991;51.174;4.438;2023-08-12T02:38:21;22.30;99.90
26081;DHT22;13991;51.174;4.438;2023-08-12T02:40:50;22.10;99.90
26081;DHT22;13991;51.174;4.438;2023-08-12T02:43:19;22.10;99.90
26081;DHT22;13991;51.174;4.438;2023-08-12T02:45:45;22.10;99.90
26081;DHT22;13991;51.174;4.438;2023-08-12T02:48:11;22.10;99.90
26081;DHT22;13991;51.174;4.438;2023-08-12T02:50:37;22.00;99.90
26081;DHT22;13991;51.174;4.438;2023-08-12T02:53:05;22.10;99.90
26081;DHT22;13991;51.174;4.438;2023-08-12T02:55:31;22.10;99.90
26081;DHT22;13991;51.174;4.438;2023-08-12T02:57:58;22.10;99.90
26081;DHT22;13991;51.174;4.438;2023-08-12T03:00:24;22.10;99.90
26081;DHT22;13991;51.174;4.438;2023-08-12T03:02:50;22.10;99.90
26081;DHT22;13991;51.174;4.438;2023-08-12T03:05:16;22.10;99.90
26081;DHT22;13991;51.174;4.438;2023-08-12T03:07:42;22.10;99.90
26081;DHT22;13991;51.174;4.438;2023-08-12T03:10:08;22.10;99.90
26081;DHT22;13991;51.174;4.438;2023-08-12T03:12:34;22.10;99.90
26081;DHT22;13991;51.174;4.438;2023-08-12T03:15:02;22.10;99.90
26081;DHT22;13991;51.174;4.438;2023-08-12T03:17:29;22.10;99.90
26081;DHT22;13991;51.174;4.438;2023-08-12T03:19:57;22.10;99.90
26081;DHT22;13991;51.174;4.438;2023-08-12T03:22:28;22.10;99.90
26081;DHT22;13991;51.174;4.438;2023-08-12T03:24:57;22.10;99.90
26081;DHT22;13991;51.174;4.438;2023-08-12T03:27:24;22.10;99.90
26081;DHT22;13991;51.174;4.438;2023-08-12T03:29:50;22.10;99.90
26081;DHT22;13991;51.174;4.438;2023-08-12T03:32:17;22.10;99.90
26081;DHT22;13991;51.174;4.438;2023-08-12T03:34:43;22.00;99.90
26081;DHT22;13991;51.174;4.438;2023-08-12T03:37:10;22.00;99.90
26081;DHT22;13991;51.174;4.438;2023-08-12T03:39:37;22.00;99.90
26081;DHT22;13991;51.174;4.438;2023-08-12T03:42:04;21.90;99.90
26081;DHT22;13991;51.174;4.438;2023-08-12T03:44:29;21.90;99.90
26081;DHT22;13991;51.174;4.438;2023-08-12T03:46:55;21.90;99.90
26081;DHT22;13991;51.174;4.438;2023-08-12T03:49:21;21.90;99.90
26081;DHT22;13991;51.174;4.438;2023-08-12T03:51:46;21.90;99.90
26081;DHT22;13991;51.174;4.438;2023-08-12T03:54:12;21.80;99.90
26081;DHT22;13991;51.174;4.438;2023-08-12T03:56:38;21.80;99.90
26081;DHT22;13991;51.174;4.438;2023-08-12T03:59:03;21.70;99.90
26081;DHT22;13991;51.174;4.438;2023-08-12T04:01:29;21.70;99.90
26081;DHT22;13991;51.174;4.438;2023-08-12T04:03:54;21.60;99.90
26081;DHT22;13991;51.174;4.438;2023-08-12T04:06:20;21.60;99.90
26081;DHT22;13991;51.174;4.438;2023-08-12T04:08:46;21.60;99.90
26081;DHT22;13991;51.174;4.438;2023-08-12T04:11:11;21.60;99.90
26081;DHT22;13991;51.174;4.438;2023-08-12T04:13:37;21.60;99.90
26081;DHT22;13991;51.174;4.438;2023-08-12T04:16:03;21.50;99.90
26081;DHT22;13991;51.174;4.438;2023-08-12T04:18:28;21.60;99.90
26081;DHT22;13991;51.174;4.438;2023-08-12T04:20:54;21.50;99.90
26081;DHT22;13991;51.174;4.438;2023-08-12T04:23:20;21.50;99.90
26081;DHT22;13991;51.174;4.438;2023-08-12T04:25:47;21.60;99.90
26081;DHT22;13991;51.174;4.438;2023-08-12T04:28:14;21.60;99.90
26081;DHT22;13991;51.174;4.438;2023-08-12T04:30:46;21.60;99.90
26081;DHT22;13991;51.174;4.438;2023-08-12T04:33:13;21.60;99.90
26081;DHT22;13991;51.174;4.438;2023-08-12T04:35:39;21.50;99.90
26081;DHT22;13991;51.174;4.438;2023-08-12T04:38:05;21.50;99.90
26081;DHT22;13991;51.174;4.438;2023-08-12T04:40:31;21.60;99.90
26081;DHT22;13991;51.174;4.438;2023-08-12T04:42:58;21.60;99.90
26081;DHT22;13991;51.174;4.438;2023-08-12T04:45:24;21.60;99.90
26081;DHT22;13991;51.174;4.438;2023-08-12T04:47:50;21.50;99.90
26081;DHT22;13991;51.174;4.438;2023-08-12T04:50:16;21.50;99.90
26081;DHT22;13991;51.174;4.438;2023-08-12T04:52:41;21.60;99.90
26081;DHT22;13991;51.174;4.438;2023-08-12T04:55:07;21.50;99.90
26081;DHT22;13991;51.174;4.438;2023-08-12T04:57:33;21.50;99.90
26081;DHT22;13991;51.174;4.438;2023-08-12T04:59:59;21.40;99.90
26081;DHT22;13991;51.174;4.438;2023-08-12T05:02:24;21.40;99.90
26081;DHT22;13991;51.174;4.438;2023-08-12T05:04:51;21.40;99.90
26081;DHT22;13991;51.174;4.438;2023-08-12T05:07:16;21.50;99.90
26081;DHT22;13991;51.174;4.438;2023-08-12T05:09:42;21.50;99.90
26081;DHT22;13991;51.174;4.438;2023-08-12T05:12:11;21.50;99.90
26081;DHT22;13991;51.174;4.438;2023-08-12T05:14:38;21.50;99.90
26081;DHT22;13991;51.174;4.438;2023-08-12T05:17:05;21.50;99.90
26081;DHT22;13991;51.174;4.438;2023-08-12T05:19:31;21.50;99.90
26081;DHT22;13991;51.174;4.438;2023-08-12T05:21:57;21.50;99.90
26081;DHT22;13991;51.174;4.438;2023-08-12T05:27:58;21.60;99.90
26081;DHT22;13991;51.174;4.438;2023-08-12T05:30:24;21.50;99.90
26081;DHT22;13991;51.174;4.438;2023-08-12T05:32:49;21.50;99.90
26081;DHT22;13991;51.174;4.438;2023-08-12T05:35:15;21.50;99.90
26081;DHT22;13991;51.174;4.438;2023-08-12T05:37:41;21.50;99.90
26081;DHT22;13991;51.174;4.438;2023-08-12T05:40:08;21.50;99.90
26081;DHT22;13991;51.174;4.438;2023-08-12T05:42:35;21.50;99.90
26081;DHT22;13991;51.174;4.438;2023-08-12T05:45:01;21.50;99.90
26081;DHT22;13991;51.174;4.438;2023-08-12T05:47:27;21.40;99.90
26081;DHT22;13991;51.174;4.438;2023-08-12T05:49:53;21.40;99.90
26081;DHT22;13991;51.174;4.438;2023-08-12T05:52:18;21.30;99.90
26081;DHT22;13991;51.174;4.438;2023-08-12T05:54:44;21.30;99.90
26081;DHT22;13991;51.174;4.438;2023-08-12T05:57:09;21.40;99.90
26081;DHT22;13991;51.174;4.438;2023-08-12T05:59:35;21.50;99.90
26081;DHT22;13991;51.174;4.438;2023-08-12T06:02:01;21.60;99.90
26081;DHT22;13991;51.174;4.438;2023-08-12T06:04:27;21.50;99.90
26081;DHT22;13991;51.174;4.438;2023-08-12T06:06:52;21.60;99.90
26081;DHT22;13991;51.174;4.438;2023-08-12T06:09:18;21.60;99.90
26081;DHT22;13991;51.174;4.438;2023-08-12T06:11:44;21.60;99.90
26081;DHT22;13991;51.174;4.438;2023-08-12T06:14:09;21.60;99.90
26081;DHT22;13991;51.174;4.438;2023-08-12T06:16:35;21.70;99.90
26081;DHT22;13991;51.174;4.438;2023-08-12T06:19:01;21.60;99.90
26081;DHT22;13991;51.174;4.438;2023-08-12T06:21:26;21.50;99.90
26081;DHT22;13991;51.174;4.438;2023-08-12T06:23:52;21.40;99.90
26081;DHT22;13991;51.174;4.438;2023-08-12T06:26:18;21.50;99.90
26081;DHT22;13991;51.174;4.438;2023-08-12T06:28:44;21.50;99.90
26081;DHT22;13991;51.174;4.438;2023-08-12T06:31:09;21.20;99.90
26081;DHT22;13991;51.174;4.438;2023-08-12T06:33:35;21.30;99.90
26081;DHT22;13991;51.174;4.438;2023-08-12T06:36:01;21.30;99.90
26081;DHT22;13991;51.174;4.438;2023-08-12T06:38:27;21.40;99.90
26081;DHT22;13991;51.174;4.438;2023-08-12T06:40:52;21.40;99.90
26081;DHT22;13991;51.174;4.438;2023-08-12T06:43:18;21.50;99.90
26081;DHT22;13991;51.174;4.438;2023-08-12T06:45:44;21.40;99.90
26081;DHT22;13991;51.174;4.438;2023-08-12T06:48:09;21.50;99.90
26081;DHT22;13991;51.174;4.438;2023-08-12T06:50:35;21.30;99.90
26081;DHT22;13991;51.174;4.438;2023-08-12T06:53:01;21.20;99.90
26081;DHT22;13991;51.174;4.438;2023-08-12T06:55:26;21.30;99.90
26081;DHT22;13991;51.174;4.438;2023-08-12T06:57:52;21.40;99.90
26081;DHT22;13991;51.174;4.438;2023-08-12T07:00:18;21.40;99.90
26081;DHT22;13991;51.174;4.438;2023-08-12T07:02:43;21.20;99.90
26081;DHT22;13991;51.174;4.438;2023-08-12T07:05:09;21.20;99.90
26081;DHT22;13991;51.174;4.438;2023-08-12T07:07:35;21.20;99.90
26081;DHT22;13991;51.174;4.438;2023-08-12T07:10:00;21.10;99.90
26081;DHT22;13991;51.174;4.438;2023-08-12T07:12:26;21.10;99.90
26081;DHT22;13991;51.174;4.438;2023-08-12T07:14:54;21.10;99.90
26081;DHT22;13991;51.174;4.438;2023-08-12T07:17:19;21.00;99.90
26081;DHT22;13991;51.174;4.438;2023-08-12T07:19:45;20.90;99.90
26081;DHT22;13991;51.174;4.438;2023-08-12T07:22:10;20.70;99.90
26081;DHT22;13991;51.174;4.438;2023-08-12T07:24:36;20.40;99.90
26081;DHT22;13991;51.174;4.438;2023-08-12T07:27:02;20.20;99.90
26081;DHT22;13991;51.174;4.438;2023-08-12T07:29:28;19.90;99.90
26081;DHT22;13991;51.174;4.438;2023-08-12T07:31:54;19.60;99.90
26081;DHT22;13991;51.174;4.438;2023-08-12T07:34:20;19.60;99.90
26081;DHT22;13991;51.174;4.438;2023-08-12T07:36:45;19.60;99.90
26081;DHT22;13991;51.174;4.438;2023-08-12T07:39:11;19.50;99.90
26081;DHT22;13991;51.174;4.438;2023-08-12T07:41:38;19.40;99.90
26081;DHT22;13991;51.174;4.438;2023-08-12T07:44:04;19.30;99.90
26081;DHT22;13991;51.174;4.438;2023-08-12T07:46:30;19.40;99.90
26081;DHT22;13991;51.174;4.438;2023-08-12T07:48:56;19.50;99.90
26081;DHT22;13991;51.174;4.438;2023-08-12T07:51:22;19.40;99.90
26081;DHT22;13991;51.174;4.438;2023-08-12T07:53:48;19.40;99.90
26081;DHT22;13991;51.174;4.438;2023-08-12T07:56:13;19.30;99.90
26081;DHT22;13991;51.174;4.438;2023-08-12T07:58:40;19.20;99.90
26081;DHT22;13991;51.174;4.438;2023-08-12T08:01:05;19.10;99.90
26081;DHT22;13991;51.174;4.438;2023-08-12T08:03:31;19.40;99.90
26081;DHT22;13991;51.174;4.438;2023-08-12T08:05:57;19.70;99.90
26081;DHT22;13991;51.174;4.438;2023-08-12T08:08:23;19.70;99.90
26081;DHT22;13991;51.174;4.438;2023-08-12T08:10:49;19.80;99.90
26081;DHT22;13991;51.174;4.438;2023-08-12T08:13:15;19.80;99.90
26081;DHT22;13991;51.174;4.438;2023-08-12T08:15:41;19.60;99.90
26081;DHT22;13991;51.174;4.438;2023-08-12T08:18:06;19.60;99.90
26081;DHT22;13991;51.174;4.438;2023-08-12T08:20:32;19.50;99.90
26081;DHT22;13991;51.174;4.438;2023-08-12T08:22:57;19.40;99.90
26081;DHT22;13991;51.174;4.438;2023-08-12T08:25:23;19.30;99.90
26081;DHT22;13991;51.174;4.438;2023-08-12T08:27:50;19.20;99.90
26081;DHT22;13991;51.174;4.438;2023-08-12T08:30:16;19.30;99.90
26081;DHT22;13991;51.174;4.438;2023-08-12T08:32:42;19.20;99.90
26081;DHT22;13991;51.174;4.438;2023-08-12T08:35:07;19.30;99.90
26081;DHT22;13991;51.174;4.438;2023-08-12T08:37:34;19.30;99.90
26081;DHT22;13991;51.174;4.438;2023-08-12T08:40:00;19.30;99.90
26081;DHT22;13991;51.174;4.438;2023-08-12T08:42:26;19.40;99.90
26081;DHT22;13991;51.174;4.438;2023-08-12T08:44:52;19.20;99.90
26081;DHT22;13991;51.174;4.438;2023-08-12T08:47:26;19.20;99.90
26081;DHT22;13991;51.174;4.438;2023-08-12T08:49:55;19.30;99.90
26081;DHT22;13991;51.174;4.438;2023-08-12T08:52:24;19.40;99.90
26081;DHT22;13991;51.174;4.438;2023-08-12T08:54:50;19.50;99.90
26081;DHT22;13991;51.174;4.438;2023-08-12T08:57:17;19.50;99.90
26081;DHT22;13991;51.174;4.438;2023-08-12T08:59:43;19.60;99.90
26081;DHT22;13991;51.174;4.438;2023-08-12T09:02:18;19.80;99.90
26081;DHT22;13991;51.174;4.438;2023-08-12T09:04:46;19.90;99.90
26081;DHT22;13991;51.174;4.438;2023-08-12T09:07:12;19.70;99.90
26081;DHT22;13991;51.174;4.438;2023-08-12T09:09:45;19.70;99.90
26081;DHT22;13991;51.174;4.438;2023-08-12T09:12:16;19.80;99.90
26081;DHT22;13991;51.174;4.438;2023-08-12T09:14:43;19.70;99.90
26081;DHT22;13991;51.174;4.438;2023-08-12T09:17:09;19.70;99.90
26081;DHT22;13991;51.174;4.438;2023-08-12T09:19:35;19.90;99.90
26081;DHT22;13991;51.174;4.438;2023-08-12T09:22:04;19.90;99.90
26081;DHT22;13991;51.174;4.438;2023-08-12T09:24:30;20.00;99.90
26081;DHT22;13991;51.174;4.438;2023-08-12T09:26:56;20.00;99.90
26081;DHT22;13991;51.174;4.438;2023-08-12T09:29:33;20.30;99.90
26081;DHT22;13991;51.174;4.438;2023-08-12T09:32:25;20.70;99.90
26081;DHT22;13991;51.174;4.438;2023-08-12T09:34:55;21.00;99.90
26081;DHT22;13991;51.174;4.438;2023-08-12T09:37:23;21.40;99.90
26081;DHT22;13991;51.174;4.438;2023-08-12T09:39:52;21.20;99.90
26081;DHT22;13991;51.174;4.438;2023-08-12T09:42:18;21.20;99.90
26081;DHT22;13991;51.174;4.438;2023-08-12T09:44:44;21.20;99.90
26081;DHT22;13991;51.174;4.438;2023-08-12T09:47:10;21.40;99.90
26081;DHT22;13991;51.174;4.438;2023-08-12T09:49:36;21.40;99.90
26081;DHT22;13991;51.174;4.438;2023-08-12T09:52:04;21.50;99.90
26081;DHT22;13991;51.174;4.438;2023-08-12T09:54:34;21.50;99.90
26081;DHT22;13991;51.174;4.438;2023-08-12T09:57:01;21.30;99.90
26081;DHT22;13991;51.174;4.438;2023-08-12T09:59:31;21.20;99.90
26081;DHT22;13991;51.174;4.438;2023-08-12T10:01:58;21.40;99.90
26081;DHT22;13991;51.174;4.438;2023-08-12T10:04:29;21.60;99.90
26081;DHT22;13991;51.174;4.438;2023-08-12T10:06:59;21.80;99.90
26081;DHT22;13991;51.174;4.438;2023-08-12T10:09:25;21.70;99.90
26081;DHT22;13991;51.174;4.438;2023-08-12T10:11:52;21.70;99.90
26081;DHT22;13991;51.174;4.438;2023-08-12T10:14:19;21.80;99.90
26081;DHT22;13991;51.174;4.438;2023-08-12T10:16:46;21.60;99.90
26081;DHT22;13991;51.174;4.438;2023-08-12T10:19:12;21.70;99.90
26081;DHT22;13991;51.174;4.438;2023-08-12T10:21:41;21.80;99.90
26081;DHT22;13991;51.174;4.438;2023-08-12T10:24:08;21.70;99.90
26081;DHT22;13991;51.174;4.438;2023-08-12T10:26:36;21.80;99.90
26081;DHT22;13991;51.174;4.438;2023-08-12T10:29:02;22.10;99.90
26081;DHT22;13991;51.174;4.438;2023-08-12T10:31:28;22.40;99.90
26081;DHT22;13991;51.174;4.438;2023-08-12T10:33:56;22.50;99.90
26081;DHT22;13991;51.174;4.438;2023-08-12T10:36:22;22.40;99.90
26081;DHT22;13991;51.174;4.438;2023-08-12T10:38:48;22.30;99.90
26081;DHT22;13991;51.174;4.438;2023-08-12T10:43:55;22.00;99.90
26081;DHT22;13991;51.174;4.438;2023-08-12T10:46:39;22.20;99.90
26081;DHT22;13991;51.174;4.438;2023-08-12T10:49:07;22.20;99.90
26081;DHT22;13991;51.174;4.438;2023-08-12T10:51:53;22.00;99.90
26081;DHT22;13991;51.174;4.438;2023-08-12T10:54:24;22.00;99.90
26081;DHT22;13991;51.174;4.438;2023-08-12T11:02:21;22.40;99.90
26081;DHT22;13991;51.174;4.438;2023-08-12T11:07:20;22.40;99.90
26081;DHT22;13991;51.174;4.438;2023-08-12T11:09:51;22.40;99.90
26081;DHT22;13991;51.174;4.438;2023-08-12T11:12:18;22.70;99.90
26081;DHT22;13991;51.174;4.438;2023-08-12T11:14:58;23.00;99.90
26081;DHT22;13991;51.174;4.438;2023-08-12T11:17:33;22.90;99.90
26081;DHT22;13991;51.174;4.438;2023-08-12T11:19:59;23.00;99.90
26081;DHT22;13991;51.174;4.438;2023-08-12T11:22:25;23.20;99.90
26081;DHT22;13991;51.174;4.438;2023-08-12T11:24:51;23.10;99.90
26081;DHT22;13991;51.174;4.438;2023-08-12T11:27:18;23.20;99.90
26081;DHT22;13991;51.174;4.438;2023-08-12T11:29:43;23.30;99.90
26081;DHT22;13991;51.174;4.438;2023-08-12T11:32:09;23.70;99.90
26081;DHT22;13991;51.174;4.438;2023-08-12T11:34:36;24.10;99.90
26081;DHT22;13991;51.174;4.438;2023-08-12T11:37:03;24.30;99.90
26081;DHT22;13991;51.174;4.438;2023-08-12T11:39:29;24.50;99.90
26081;DHT22;13991;51.174;4.438;2023-08-12T11:41:55;24.40;99.90
26081;DHT22;13991;51.174;4.438;2023-08-12T11:44:22;24.50;99.90
26081;DHT22;13991;51.174;4.438;2023-08-12T11:46:48;24.40;99.90
26081;DHT22;13991;51.174;4.438;2023-08-12T11:49:13;24.20;99.90
26081;DHT22;13991;51.174;4.438;2023-08-12T11:51:39;23.90;99.90
26081;DHT22;13991;51.174;4.438;2023-08-12T11:54:05;23.90;99.90
26081;DHT22;13991;51.174;4.438;2023-08-12T11:56:31;24.00;99.90
26081;DHT22;13991;51.174;4.438;2023-08-12T11:58:57;24.10;99.90
26081;DHT22;13991;51.174;4.438;2023-08-12T12:01:23;24.40;99.90
26081;DHT22;13991;51.174;4.438;2023-08-12T12:03:52;24.70;99.90
26081;DHT22;13991;51.174;4.438;2023-08-12T12:06:17;25.10;99.90
26081;DHT22;13991;51.174;4.438;2023-08-12T12:08:53;25.20;99.90
26081;DHT22;13991;51.174;4.438;2023-08-12T12:11:19;25.40;99.90
26081;DHT22;13991;51.174;4.438;2023-08-12T12:13:45;25.40;99.90
26081;DHT22;13991;51.174;4.438;2023-08-12T12:16:12;25.60;99.90
26081;DHT22;13991;51.174;4.438;2023-08-12T12:18:38;25.80;99.90
26081;DHT22;13991;51.174;4.438;2023-08-12T12:21:04;25.90;99.90
26081;DHT22;13991;51.174;4.438;2023-08-12T12:23:30;25.80;99.90
26081;DHT22;13991;51.174;4.438;2023-08-12T12:26:05;25.30;99.90
26081;DHT22;13991;51.174;4.438;2023-08-12T12:28:31;25.20;99.90
26081;DHT22;13991;51.174;4.438;2023-08-12T12:30:56;25.30;99.90
26081;DHT22;13991;51.174;4.438;2023-08-12T12:33:22;25.80;99.90
26081;DHT22;13991;51.174;4.438;2023-08-12T12:35:48;25.90;99.90
26081;DHT22;13991;51.174;4.438;2023-08-12T12:38:13;25.40;99.90
26081;DHT22;13991;51.174;4.438;2023-08-12T12:40:39;24.90;99.90
26081;DHT22;13991;51.174;4.438;2023-08-12T12:43:05;25.20;99.90
26081;DHT22;13991;51.174;4.438;2023-08-12T12:45:32;25.60;99.90
26081;DHT22;13991;51.174;4.438;2023-08-12T12:47:57;25.80;99.90
26081;DHT22;13991;51.174;4.438;2023-08-12T12:50:23;25.90;99.90
26081;DHT22;13991;51.174;4.438;2023-08-12T12:52:49;25.90;99.90
26081;DHT22;13991;51.174;4.438;2023-08-12T12:55:14;25.60;99.90
26081;DHT22;13991;51.174;4.438;2023-08-12T12:57:40;25.40;99.90
26081;DHT22;13991;51.174;4.438;2023-08-12T13:00:06;25.10;99.90
26081;DHT22;13991;51.174;4.438;2023-08-12T13:02:37;25.10;99.90
26081;DHT22;13991;51.174;4.438;2023-08-12T13:05:03;25.30;99.90
26081;DHT22;13991;51.174;4.438;2023-08-12T13:07:29;25.60;99.90
26081;DHT22;13991;51.174;4.438;2023-08-12T13:09:56;25.50;99.90
26081;DHT22;13991;51.174;4.438;2023-08-12T13:12:22;25.80;99.90
26081;DHT22;13991;51.174;4.438;2023-08-12T13:14:48;26.00;99.90
26081;DHT22;13991;51.174;4.438;2023-08-12T13:17:13;26.10;99.90
26081;DHT22;13991;51.174;4.438;2023-08-12T13:19:39;26.30;99.90
26081;DHT22;13991;51.174;4.438;2023-08-12T13:22:05;26.00;99.90
26081;DHT22;13991;51.174;4.438;2023-08-12T13:24:30;26.20;99.90
26081;DHT22;13991;51.174;4.438;2023-08-12T13:26:56;26.20;99.90
26081;DHT22;13991;51.174;4.438;2023-08-12T13:29:22;26.30;99.90
26081;DHT22;13991;51.174;4.438;2023-08-12T13:31:48;26.30;99.90
26081;DHT22;13991;51.174;4.438;2023-08-12T13:34:13;26.40;99.90
26081;DHT22;13991;51.174;4.438;2023-08-12T13:36:40;26.00;99.90
26081;DHT22;13991;51.174;4.438;2023-08-12T13:39:05;25.80;99.90
26081;DHT22;13991;51.174;4.438;2023-08-12T13:41:31;25.90;99.90
26081;DHT22;13991;51.174;4.438;2023-08-12T13:43:57;25.60;99.90
26081;DHT22;13991;51.174;4.438;2023-08-12T13:46:22;25.70;99.90
26081;DHT22;13991;51.174;4.438;2023-08-12T13:48:48;25.90;99.90
26081;DHT22;13991;51.174;4.438;2023-08-12T13:51:14;26.20;99.90
26081;DHT22;13991;51.174;4.438;2023-08-12T13:53:39;25.90;99.90
26081;DHT22;13991;51.174;4.438;2023-08-12T13:56:05;25.60;99.90
26081;DHT22;13991;51.174;4.438;2023-08-12T13:58:31;25.70;99.90
26081;DHT22;13991;51.174;4.438;2023-08-12T14:00:56;25.90;99.90
26081;DHT22;13991;51.174;4.438;2023-08-12T14:03:22;26.00;99.90
26081;DHT22;13991;51.174;4.438;2023-08-12T14:05:49;26.20;99.90
26081;DHT22;13991;51.174;4.438;2023-08-12T14:08:14;26.50;99.90
26081;DHT22;13991;51.174;4.438;2023-08-12T14:10:40;26.40;99.90
26081;DHT22;13991;51.174;4.438;2023-08-12T14:13:06;26.30;99.90
26081;DHT22;13991;51.174;4.438;2023-08-12T14:15:32;26.40;99.90
26081;DHT22;13991;51.174;4.438;2023-08-12T14:17:57;26.60;99.90
26081;DHT22;13991;51.174;4.438;2023-08-12T14:20:23;26.70;99.90
26081;DHT22;13991;51.174;4.438;2023-08-12T14:22:49;26.80;99.90
26081;DHT22;13991;51.174;4.438;2023-08-12T14:25:15;26.90;99.90
26081;DHT22;13991;51.174;4.438;2023-08-12T14:27:40;26.60;99.90
26081;DHT22;13991;51.174;4.438;2023-08-12T14:30:07;26.70;99.90
26081;DHT22;13991;51.174;4.438;2023-08-12T14:32:34;26.70;99.90
26081;DHT22;13991;51.174;4.438;2023-08-12T14:35:00;26.30;99.90
26081;DHT22;13991;51.174;4.438;2023-08-12T14:37:25;26.40;99.90
26081;DHT22;13991;51.174;4.438;2023-08-12T14:39:58;25.90;99.90
26081;DHT22;13991;51.174;4.438;2023-08-12T14:42:23;25.70;99.90
26081;DHT22;13991;51.174;4.438;2023-08-12T14:44:49;25.80;99.90
26081;DHT22;13991;51.174;4.438;2023-08-12T14:47:15;26.00;99.90
26081;DHT22;13991;51.174;4.438;2023-08-12T14:49:40;26.30;99.90
26081;DHT22;13991;51.174;4.438;2023-08-12T14:52:15;26.50;99.90
26081;DHT22;13991;51.174;4.438;2023-08-12T14:54:41;26.40;99.90
26081;DHT22;13991;51.174;4.438;2023-08-12T14:57:07;26.50;99.90
26081;DHT22;13991;51.174;4.438;2023-08-12T14:59:32;26.70;99.90
26081;DHT22;13991;51.174;4.438;2023-08-12T15:01:58;26.70;99.90
26081;DHT22;13991;51.174;4.438;2023-08-12T15:04:24;26.80;99.90
26081;DHT22;13991;51.174;4.438;2023-08-12T15:06:50;26.70;99.30
26081;DHT22;13991;51.174;4.438;2023-08-12T15:09:16;26.50;98.90
26081;DHT22;13991;51.174;4.438;2023-08-12T15:11:43;26.30;99.90
26081;DHT22;13991;51.174;4.438;2023-08-12T15:14:09;26.10;99.10
26081;DHT22;13991;51.174;4.438;2023-08-12T15:16:35;25.80;99.40
26081;DHT22;13991;51.174;4.438;2023-08-12T15:19:01;25.60;99.90
26081;DHT22;13991;51.174;4.438;2023-08-12T15:21:27;25.70;99.90
26081;DHT22;13991;51.174;4.438;2023-08-12T15:23:53;25.60;99.90
26081;DHT22;13991;51.174;4.438;2023-08-12T15:26:20;25.40;99.90
26081;DHT22;13991;51.174;4.438;2023-08-12T15:28:48;25.20;99.90
26081;DHT22;13991;51.174;4.438;2023-08-12T15:31:13;25.50;99.90
26081;DHT22;13991;51.174;4.438;2023-08-12T15:33:40;25.60;99.90
26081;DHT22;13991;51.174;4.438;2023-08-12T15:36:06;25.90;99.90
26081;DHT22;13991;51.174;4.438;2023-08-12T15:38:32;26.00;99.90
26081;DHT22;13991;51.174;4.438;2023-08-12T15:40:59;26.30;99.90
26081;DHT22;13991;51.174;4.438;2023-08-12T15:43:25;26.20;99.90
26081;DHT22;13991;51.174;4.438;2023-08-12T15:45:51;25.70;99.90